Latest Weather Observations for Sheoaks

IDV60801

Issued at 9:32 am EDT Monday 27 March 2017 (issued every 30 minutes, with the page automatically refreshed every 10 minutes)

About weather observations | Map of weather stations | Latest weather observations for VIC | Other Formats
Station Details ID: 087168 Name: SHEOAKS Lat: -37.91 Lon: 144.13 Height: 236.7 m
Data from the previous 72 hours. | See also: Recent months at Sheoaks
Date/Time
EDT
Temp
°C
App
Temp
°C
Dew
Point
°C
Rel
Hum
%
Delta-T
°C
Wind Press
QNH
hPa
Press
MSL
hPa
Rain since
9am
mm
Dir  Spd
km/h
Gust
km/h
Spd
kts
Gust
kts
27/09:30am 28.7 21.5 13.0 38 9.4 N 43 69 23 37 1003.2 1002.6 0.0
27/09:00am 27.7 20.7 12.5 39 9.0 N 41 65 22 35 1003.5 1002.9 0.2
27/08:30am 26.3 20.5 11.6 40 8.5 N 33 52 18 28 1003.5 1002.9 0.2
27/08:01am 26.6 20.3 11.1 38 8.9 N 35 56 19 30 1003.8 1003.2 0.2
27/08:00am 26.6 19.9 11.1 38 8.9 N 37 56 20 30 1003.8 1003.2 0.2
27/07:54am 26.6 20.3 11.1 38 8.9 N 35 56 19 30 1003.7 1003.1 0.2
27/07:30am 26.3 20.5 10.9 38 8.8 N 32 46 17 25 1003.9 1003.3 0.2
27/07:00am 26.3 20.4 11.2 38 8.7 N 33 50 18 27 1004.3 1003.7 0.2
27/06:31am 25.9 19.8 11.6 40 8.2 N 35 54 19 29 1004.1 1003.5 0.2
27/06:30am 25.9 19.4 11.6 40 8.2 N 37 56 20 30 1004.1 1003.5 0.2
27/06:20am 25.8 20.0 11.6 41 8.2 N 33 52 18 28 1004.1 1003.5 0.2
27/06:00am 25.4 19.8 11.6 42 7.9 N 32 44 17 24 1004.8 1004.2 0.2
27/05:30am 25.2 20.7 11.4 42 7.9 N 26 39 14 21 1005.6 1005.1 0.2
27/05:00am 25.4 21.2 11.2 41 8.1 N 24 43 13 23 1006.1 1005.6 0.2
27/04:30am 25.2 21.6 11.7 43 7.8 N 22 32 12 17 1006.4 1005.9 0.2
27/04:00am 25.3 21.7 11.8 43 7.8 NNW 22 33 12 18 1006.9 1006.4 0.2
27/03:30am 25.1 21.9 12.0 44 7.6 N 20 32 11 17 1007.3 1006.7 0.2
27/03:00am 24.4 21.1 11.7 45 7.3 N 20 35 11 19 1007.6 1007.0 0.2
27/02:30am 24.2 20.8 11.2 44 7.4 N 20 30 11 16 1008.3 1007.7 0.2
27/02:00am 24.0 20.8 12.0 47 6.9 N 20 30 11 16 1008.8 1008.3 0.2
27/01:30am 22.3 20.1 13.4 57 5.2 N 17 24 9 13 1009.2 1008.7 0.2
27/01:00am 22.1 20.0 13.5 58 5.0 N 17 24 9 13 1009.8 1009.3 0.2
27/12:30am 21.0 19.4 13.9 64 4.2 N 15 20 8 11 1010.2 1009.7 0.2
27/12:00am 20.1 19.6 14.9 72 3.1 NNW 11 17 6 9 1010.6 1010.1 0.2
 
Date/Time
EDT
Temp
°C
App
Temp
°C
Dew
Point
°C
Rel
Hum
%
Delta-T
°C
Wind Press
QNH
hPa
Press
MSL
hPa
Rain since
9am
mm
Dir  Spd
km/h
Gust
km/h
Spd
kts
Gust
kts
26/11:30pm 19.4 20.2 15.9 80 2.1 N 6 7 3 4 1011.0 1010.5 0.2
26/11:00pm 18.8 20.1 16.2 85 1.6 NE 4 6 2 3 1011.7 1011.1 0.2
26/10:30pm 19.3 19.9 16.7 85 1.6 NNE 9 11 5 6 1012.2 1011.6 0.2
26/10:00pm 19.2 19.8 16.8 86 1.5 NNE 9 13 5 7 1012.4 1011.9 0.2
26/09:30pm 18.6 19.6 16.4 87 1.3 NE 6 6 3 3 1012.5 1012.0 0.2
26/09:00pm 18.3 19.2 16.1 87 1.3 E 6 6 3 3 1012.6 1012.1 0.2
26/08:30pm 18.9 19.9 16.3 85 1.6 E 6 9 3 5 1012.6 1012.1 0.2
26/08:00pm 19.1 19.8 16.0 82 1.9 E 7 11 4 6 1012.6 1012.1 0.0
26/07:30pm 20.5 20.8 16.1 76 2.7 E 9 15 5 8 1012.6 1012.1 0.0
26/07:00pm 21.6 21.2 16.3 72 3.2 ESE 13 17 7 9 1012.3 1011.8 0.0
26/06:30pm 22.7 22.0 16.5 68 3.8 ESE 15 17 8 9 1012.3 1011.8 0.0
26/06:00pm 24.0 23.9 17.0 65 4.4 ESE 13 19 7 10 1012.3 1011.8 0.0
26/05:30pm 25.4 26.0 17.8 62 4.8 ESE 11 15 6 8 1012.3 1011.8 0.0
26/05:00pm 25.2 26.2 17.7 63 4.7 ESE 9 13 5 7 1012.3 1011.8 0.0
26/04:30pm 24.9 26.2 17.6 64 4.6 ESE 7 15 4 8 1012.6 1012.1 0.0
26/04:00pm 23.9 25.0 17.2 66 4.2 E 7 15 4 8 1012.6 1012.1 0.0
26/03:30pm 23.6 24.6 17.8 70 3.7 ESE 9 13 5 7 1012.9 1012.4 0.0
26/03:00pm 22.9 24.1 17.4 71 3.4 E 7 13 4 7 1013.2 1012.7 0.0
26/02:30pm 22.0 23.1 17.2 74 3.0 ENE 7 11 4 6 1013.7 1013.2 0.0
26/02:00pm 21.2 22.1 17.6 80 2.2 ENE 9 15 5 8 1013.9 1013.4 0.0
26/01:30pm 19.7 20.1 17.3 86 1.5 ENE 11 17 6 9 1014.6 1014.1 0.0
26/01:00pm 18.6 19.2 17.6 94 0.6 E 11 15 6 8 1015.0 1014.5 0.0
26/12:30pm 18.3 18.9 17.7 96 0.4 E 11 15 6 8 1015.3 1014.8 0.0
26/12:00pm 18.1 19.5 17.8 98 0.2 E 7 11 4 6 1015.8 1015.4 0.0
26/11:30am 17.7 18.9 17.4 98 0.2 E 7 11 4 6 1016.1 1015.6 0.0
26/11:00am 17.6 18.8 17.3 98 0.2 E 7 11 4 6 1016.3 1015.8 0.0
26/10:30am 17.3 18.4 17.0 98 0.2 ESE 7 9 4 5 1016.5 1016.0 0.0
26/10:00am 17.1 18.1 16.8 98 0.2 ESE 7 11 4 6 1016.3 1015.8 0.0
26/09:30am 17.0 17.9 16.5 97 0.3 ESE 7 9 4 5 1016.0 1015.5 0.0
26/09:00am 16.9 17.3 16.4 97 0.3 ESE 9 13 5 7 1015.6 1015.1 1.8
26/08:30am 17.0 18.1 16.5 97 0.3 E 6 7 3 4 1015.4 1014.9 1.8
26/08:00am 16.9 18.3 16.3 96 0.4 E 4 6 2 3 1015.2 1014.7 1.8
26/07:30am 16.8 18.9 16.2 96 0.4 CALM 0 0 0 0 1015.0 1014.5 1.6
26/07:00am 16.7 18.7 16.1 96 0.4 CALM 0 0 0 0 1014.8 1014.3 1.6
26/06:30am 16.6 17.8 15.8 95 0.5 ESE 4 4 2 2 1014.5 1014.0 1.6
26/06:00am 16.7 18.2 15.7 94 0.6 E 2 4 1 2 1014.5 1014.0 1.6
26/05:30am 16.7 17.8 15.7 94 0.6 E 4 4 2 2 1014.3 1013.8 1.6
26/05:00am 16.4 17.8 15.4 94 0.6 NNW 2 2 1 1 1014.3 1013.8 1.6
26/04:30am 16.0 17.2 15.0 94 0.6 N 2 4 1 2 1014.2 1013.7 1.6
26/04:00am 15.8 17.0 14.8 94 0.6 N 2 4 1 2 1014.5 1014.0 1.6
26/03:30am 15.7 16.5 14.7 94 0.6 NNW 4 4 2 2 1014.7 1014.2 1.6
26/03:00am 15.5 16.6 14.5 94 0.6 N 2 4 1 2 1014.6 1014.1 1.6
26/02:30am 15.4 16.1 14.4 94 0.6 NNW 4 4 2 2 1014.9 1014.4 1.6
26/02:00am 15.0 15.5 13.9 93 0.6 N 4 6 2 3 1015.2 1014.7 1.6
26/01:30am 15.3 15.9 14.2 93 0.6 NNW 4 6 2 3 1015.3 1014.8 1.6
26/01:00am 15.9 17.1 14.8 93 0.6 WSW 2 4 1 2 1015.4 1014.9 1.6
26/12:30am 15.2 16.4 13.7 91 0.9 CALM 0 2 0 1 1015.3 1014.8 1.6
26/12:00am 15.6 16.1 14.0 90 0.9 N 4 6 2 3 1015.4 1014.9 1.6
 
Date/Time
EDT
Temp
°C
App
Temp
°C
Dew
Point
°C
Rel
Hum
%
Delta-T
°C
Wind Press
QNH
hPa
Press
MSL
hPa
Rain since
9am
mm
Dir  Spd
km/h
Gust
km/h
Spd
kts
Gust
kts
25/11:30pm 16.3 16.5 14.1 87 1.3 ENE 6 6 3 3 1015.4 1014.9 1.6
25/11:00pm 16.9 17.6 14.4 85 1.4 E 4 4 2 2 1015.3 1014.8 1.6
25/10:30pm 17.6 18.0 14.7 83 1.7 ESE 6 7 3 4 1015.1 1014.6 1.6
25/10:00pm 17.7 18.3 14.2 80 2.0 ENE 4 6 2 3 1014.8 1014.3 1.6
25/09:30pm 18.7 19.4 14.4 76 2.5 ESE 4 6 2 3 1014.5 1014.0 1.6
25/09:00pm 20.3 20.8 14.9 71 3.2 SE 6 13 3 7 1014.0 1013.5 1.6
25/08:30pm 20.0 21.6 15.0 73 3.0 CALM 0 0 0 0 1013.5 1013.0 1.6
25/08:00pm 21.2 21.4 14.8 67 3.8 SSE 7 9 4 5 1013.2 1012.7 1.6
25/07:30pm 22.1 21.7 15.2 65 4.1 SSE 11 15 6 8 1012.8 1012.3 1.6
25/07:00pm 23.3 23.6 15.9 63 4.5 SSE 9 15 5 8 1012.2 1011.6 1.6
25/06:30pm 24.5 24.4 16.0 59 5.2 SE 11 17 6 9 1011.8 1011.2 1.6
25/06:00pm 24.9 25.4 16.6 60 5.2 SE 9 13 5 7 1011.4 1010.9 1.6
25/05:30pm 24.9 25.6 17.1 62 4.9 ESE 9 15 5 8 1011.2 1010.7 1.6
25/05:00pm 24.8 25.9 17.0 62 4.9 N 7 9 4 5 1010.9 1010.4 1.6
25/04:30pm 27.4 28.0 15.4 48 7.4 N 6 7 3 4 1010.9 1010.4 1.6
25/04:00pm 24.7 26.9 18.4 68 4.0 S 4 7 2 4 1011.2 1010.7 1.6
25/03:30pm 23.6 25.5 17.6 69 3.8 W 4 7 2 4 1011.2 1010.7 0.8
25/03:00pm 26.9 25.9 14.6 46 7.5 NW 13 20 7 11 1011.2 1010.7 0.2
25/02:30pm 29.1 27.8 14.9 42 8.7 WNW 15 20 8 11 1011.4 1010.9 0.2
25/02:00pm 27.6 25.7 14.3 44 8.1 W 17 28 9 15 1011.8 1011.2 0.2
25/01:30pm 27.8 25.7 13.7 42 8.5 WNW 17 28 9 15 1011.8 1011.2 0.2
25/01:00pm 28.3 26.5 13.4 40 8.9 W 15 32 8 17 1012.2 1011.6 0.0
25/12:30pm 28.8 27.4 13.5 39 9.2 WNW 13 22 7 12 1012.6 1012.1 0.0
25/12:00pm 26.9 25.3 15.0 48 7.3 NW 17 28 9 15 1012.9 1012.4 0.0
25/11:30am 26.8 25.4 15.5 50 6.9 NNW 17 28 9 15 1013.2 1012.7 0.0
25/11:00am 26.0 25.2 16.0 54 6.2 NNW 15 26 8 14 1013.3 1012.8 0.0
25/10:30am 24.8 23.5 15.7 57 5.6 NNW 17 22 9 12 1013.2 1012.7 0.0
25/10:00am 23.8 22.8 15.6 60 5.0 NNW 15 20 8 11 1013.1 1012.6 0.0
25/09:30am 21.6 20.1 15.2 67 3.8 NNW 17 24 9 13 1013.1 1012.6 0.0
25/09:00am 21.1 19.9 15.0 68 3.6 NNW 15 24 8 13 1012.8 1012.3 0.0
25/08:30am 20.8 19.1 14.7 68 3.6 NNW 17 24 9 13 1012.6 1012.1 0.0
25/08:00am 20.4 18.5 14.1 67 3.7 NNW 17 24 9 13 1012.3 1011.8 0.0
25/07:30am 20.1 18.8 13.8 67 3.7 NNW 13 19 7 10 1012.2 1011.6 0.0
25/07:00am 20.1 18.8 13.6 66 3.8 NNW 13 20 7 11 1012.1 1011.5 0.0
25/06:30am 19.6 18.3 13.8 69 3.4 N 13 19 7 10 1011.9 1011.3 0.0
25/06:00am 18.4 17.6 13.9 75 2.6 N 11 15 6 8 1011.9 1011.3 0.0
25/05:30am 18.1 17.7 14.2 78 2.3 N 9 13 5 7 1012.0 1011.4 0.0
25/05:00am 18.0 17.2 14.1 78 2.3 N 11 17 6 9 1012.4 1011.9 0.0
25/04:30am 17.6 17.6 14.1 80 2.0 NNW 7 11 4 6 1012.5 1012.0 0.0
25/04:00am 17.2 16.9 14.5 84 1.6 N 9 13 5 7 1012.4 1011.9 0.0
25/03:30am 17.2 17.2 14.3 83 1.7 N 7 11 4 6 1012.7 1012.2 0.0
25/03:00am 17.5 17.2 14.4 82 1.8 N 9 13 5 7 1013.3 1012.8 0.0
25/02:30am 16.1 16.4 14.5 90 0.9 NNE 6 7 3 4 1013.4 1012.9 0.0
25/02:00am 16.1 16.7 14.3 89 1.0 ENE 4 4 2 2 1014.5 1014.0 0.0
25/01:30am 16.3 17.0 14.5 89 1.0 E 4 6 2 3 1014.7 1014.2 0.0
25/01:00am 15.7 16.2 14.1 90 0.9 N 4 6 2 3 1015.5 1015.0 0.0
25/12:30am 15.3 15.3 13.7 90 0.9 NNW 6 6 3 3 1015.4 1014.9 0.0
25/12:00am 15.7 16.8 13.5 87 1.2 CALM 0 0 0 0 1015.7 1015.2 0.0
 
Date/Time
EDT
Temp
°C
App
Temp
°C
Dew
Point
°C
Rel
Hum
%
Delta-T
°C
Wind Press
QNH
hPa
Press
MSL
hPa
Rain since
9am
mm
Dir  Spd
km/h
Gust
km/h
Spd
kts
Gust
kts
24/11:30pm 15.8 16.6 13.8 88 1.1 NNW 2 4 1 2 1015.2 1014.7 0.0
24/11:00pm 15.1 15.0 13.3 89 1.0 N 6 6 3 3 1015.5 1015.0 0.0
24/10:30pm 15.5 15.2 13.3 87 1.2 NE 7 9 4 5 1015.8 1015.4 0.0
24/10:00pm 16.0 16.7 13.5 85 1.4 NE 2 6 1 3 1016.3 1015.8 0.0
24/09:30pm 16.0 15.8 12.9 82 1.7 NE 6 7 3 4 1016.2 1015.7 0.0
24/09:00pm 17.4 18.0 13.1 76 2.4 SSE 2 6 1 3 1016.5 1016.0 0.0
24/08:30pm 17.7 17.6 13.2 75 2.6 ESE 6 7 3 4 1016.5 1016.0 0.0
24/08:00pm 18.2 18.2 13.5 74 2.7 SE 6 7 3 4 1016.2 1015.7 0.0
24/07:30pm 19.0 18.7 13.2 69 3.3 ESE 7 9 4 5 1016.2 1015.7 0.0
24/07:00pm 20.0 19.7 12.7 63 4.2 SE 6 7 3 4 1016.4 1015.9 0.0
24/06:30pm 20.6 19.7 12.6 60 4.6 SE 9 13 5 7 1016.1 1015.6 0.0
24/06:00pm 21.5 20.6 12.6 57 5.1 SE 9 15 5 8 1016.3 1015.8 0.0
24/05:30pm 21.9 20.8 13.0 57 5.1 ESE 11 15 6 8 1016.0 1015.5 0.0
24/05:00pm 23.4 22.1 13.8 54 5.7 ESE 13 17 7 9 1015.8 1015.4 0.0
24/04:30pm 22.2 20.8 13.3 57 5.2 SE 13 17 7 9 1016.0 1015.5 0.0
24/04:00pm 22.5 21.6 13.6 57 5.2 SE 11 17 6 9 1016.2 1015.7 0.0
24/03:30pm 22.7 21.9 14.0 58 5.1 SE 11 20 6 11 1016.3 1015.8 0.0
24/03:00pm 22.0 21.2 12.8 56 5.3 E 9 15 5 8 1016.8 1016.3 0.0
24/02:30pm 22.1 21.0 13.2 57 5.2 ESE 11 15 6 8 1017.4 1016.9 0.0
24/02:00pm 21.7 20.8 13.6 60 4.7 SE 11 17 6 9 1017.9 1017.4 0.0
24/01:30pm 21.3 20.7 13.5 61 4.5 ESE 9 17 5 9 1018.5 1018.0 0.0
24/01:00pm 20.8 19.8 13.5 63 4.2 SE 11 20 6 11 1018.8 1018.3 0.0
24/12:30pm 20.6 20.0 13.6 64 4.1 SE 9 13 5 7 1019.5 1019.1 0.0
24/12:00pm 19.9 19.0 13.8 68 3.5 SE 11 17 6 9 1019.6 1019.2 0.0
24/11:30am 18.6 18.0 13.5 72 2.9 SE 9 15 5 8 1019.9 1019.5 0.0
24/11:00am 17.7 17.4 13.4 76 2.4 SE 7 11 4 6 1020.1 1019.7 0.0
24/10:30am 17.4 17.3 13.9 80 2.0 SE 7 15 4 8 1020.0 1019.6 0.0
24/10:00am 16.4 15.8 13.5 83 1.6 E 9 15 5 8 1020.1 1019.7 0.0

Other Formats:

Comma delimited format used in spreadsheet applications
http://www.bom.gov.au/fwo/IDV60801/IDV60801.94863.axf

JavaScript Object Notation format (JSON) in row-major order
http://www.bom.gov.au/fwo/IDV60801/IDV60801.94863.json